Weather History for Comanche, TX

Change the Weather History Date:

Sunday, November 17, 2013

  Actual Average (KSEP) Record (KSEP)
Temperature  
Mean Temperature 71 °F -  
Max Temperature 84 °F 63 °F 86 °F (1921)
Min Temperature 58 °F 40 °F 20 °F (1959)
Cooling Degree Days 6    
Growing Degree Days 21 (Base 50)    
Moisture  
Dew Point 50 °F    
Average Humidity 53    
Maximum Humidity 93    
Minimum Humidity 15    
Precipitation  
Precipitation 0.00 in - - ()
Sea Level Pressure  
Sea Level Pressure 29.86 in    
Wind  
Wind Speed 12 mph (West)    
Max Wind Speed 20 mph    
Max Gust Speed 26 mph    
Visibility 10 miles    
Events      
Averages and records for this station are not official NWS values.
T = Trace of Precipitation, MM = Missing Value Source: NWS Daily Summary

Daily Weather History Graph

Daily Weather History Graph

Search for Another Location

Airport:

Trip Planner

Search our weather history database for the weather conditions in past years. The results will help you decide how hot, cold, wet, or windy it might be!

Date:

Astronomy

Nov. 17, 2013 Rise Set
Actual Time 7:04 AM CST 5:33 PM CST
Civil Twilight 6:38 AM CST 5:59 PM CST
Nautical Twilight 6:09 AM CST 6:29 PM CST
Astronomical Twilight 5:40 AM CST 6:58 PM CST
Moon 5:51 PM CST (11/17) 7:01 AM CST (11/17)
Length of Visible Light 11h 20m
Length of Day
10h 28m
Full, 100% of the Moon is Illuminated
Nov 17
Full
Nov 25
Last Quarter
Dec 2
New
Dec 9
First Quarter
Dec 17
Full

Hourly Weather History & Observations

Time (CST) Temp. Dew Point Humidity Pressure Visibility Wind Dir Wind Speed Gust Speed Precip Events Conditions
12:15 AM 67.6 °F 64.2 °F 89% 29.75 in 10.0 mi SSW 15.0 mph - N/A   Clear
12:35 AM 67.5 °F 64.0 °F 89% 29.75 in 10.0 mi SSW 16.1 mph - N/A   Clear
12:55 AM 67.5 °F 63.9 °F 88% 29.75 in 10.0 mi SSW 16.1 mph - N/A   Clear
1:15 AM 67.6 °F 63.9 °F 88% 29.75 in 10.0 mi SSW 16.1 mph 23.0 mph N/A   Clear
1:35 AM 67.5 °F 63.7 °F 88% 29.75 in 10.0 mi SSW 15.0 mph 21.9 mph N/A   Clear
1:55 AM 67.3 °F 63.7 °F 88% 29.75 in 10.0 mi SSW 15.0 mph 19.6 mph N/A   Clear
2:15 AM 67.3 °F 63.9 °F 89% 29.75 in 10.0 mi SSW 15.0 mph 18.4 mph N/A   Clear
2:35 AM 67.1 °F 63.7 °F 89% 29.76 in 10.0 mi SSW 16.1 mph - N/A   Clear
2:55 AM 67.1 °F 63.7 °F 89% 29.75 in 10.0 mi SSW 16.1 mph 21.9 mph N/A   Clear
3:15 AM 67.1 °F 63.9 °F 89% 29.75 in 10.0 mi SSW 15.0 mph 21.9 mph N/A   Clear
3:35 AM 67.3 °F 63.9 °F 89% 29.76 in 10.0 mi SSW 16.1 mph 23.0 mph N/A   Scattered Clouds
3:55 AM 67.1 °F 63.7 °F 89% 29.75 in 10.0 mi SSW 16.1 mph - N/A   Mostly Cloudy
4:15 AM 67.3 °F 63.9 °F 89% 29.75 in 10.0 mi SSW 17.3 mph 21.9 mph N/A   Mostly Cloudy
4:35 AM 67.1 °F 63.7 °F 89% 29.74 in 10.0 mi SSW 19.6 mph 25.3 mph N/A   Scattered Clouds
4:55 AM 67.1 °F 63.7 °F 89% 29.75 in 10.0 mi SSW 17.3 mph 26.5 mph N/A   Clear
5:15 AM 66.7 °F 63.9 °F 90% 29.75 in 10.0 mi SSW 16.1 mph - N/A   Clear
5:35 AM 66.6 °F 63.9 °F 91% 29.75 in 10.0 mi SSW 15.0 mph 23.0 mph N/A   Clear
5:55 AM 66.4 °F 63.9 °F 92% 29.77 in 10.0 mi SSW 15.0 mph 23.0 mph N/A   Clear
6:15 AM 66.2 °F 63.9 °F 92% 29.78 in 10.0 mi SW 13.8 mph 18.4 mph N/A   Clear
6:35 AM 66.4 °F 64.0 °F 92% 29.80 in 10.0 mi SW 10.4 mph 18.4 mph N/A   Clear
6:55 AM 66.2 °F 63.9 °F 92% 29.80 in 10.0 mi SW 6.9 mph - N/A   Clear
7:15 AM 65.8 °F 63.7 °F 93% 29.81 in 10.0 mi SSW 6.9 mph - N/A   Clear
7:35 AM 66.2 °F 63.9 °F 92% 29.82 in 10.0 mi SW 9.2 mph 18.4 mph N/A   Clear
7:55 AM 67.1 °F 63.9 °F 89% 29.83 in 10.0 mi SW 10.4 mph 16.1 mph N/A   Clear
8:15 AM 68.4 °F 64.0 °F 86% 29.84 in 10.0 mi SW 12.7 mph 16.1 mph N/A   Clear
8:35 AM 69.8 °F 64.2 °F 82% 29.86 in 10.0 mi SW 11.5 mph - N/A   Clear
8:55 AM 70.7 °F 64.4 °F 80% 29.87 in 10.0 mi WSW 10.4 mph - N/A   Clear
9:15 AM 71.8 °F 64.0 °F 77% 29.87 in 10.0 mi WSW 13.8 mph - N/A   Clear
9:35 AM 73.2 °F 62.8 °F 70% 29.88 in 10.0 mi WSW 9.2 mph 17.3 mph N/A   Clear
9:55 AM 73.8 °F 60.8 °F 64% 29.89 in 10.0 mi WSW 11.5 mph 20.7 mph N/A   Clear
10:15 AM 75.2 °F 57.9 °F 55% 29.89 in 10.0 mi WSW 10.4 mph 20.7 mph N/A   Clear
10:35 AM 76.5 °F 55.8 °F 49% 29.90 in 10.0 mi West 10.4 mph - N/A   Clear
10:55 AM 77.7 °F 53.8 °F 43% 29.90 in 10.0 mi West 11.5 mph - N/A   Clear
11:15 AM 79.2 °F 52.9 °F 40% 29.89 in 10.0 mi WNW 11.5 mph 17.3 mph N/A   Clear
11:35 AM 80.1 °F 51.6 °F 37% 29.89 in 10.0 mi West 11.5 mph 20.7 mph N/A   Clear
11:55 AM 80.6 °F 50.5 °F 35% 29.88 in 10.0 mi WNW 9.2 mph 18.4 mph N/A   Clear
12:15 PM 82.4 °F 44.6 °F 26% 29.87 in 10.0 mi West 13.8 mph 20.7 mph N/A   Clear
12:35 PM 82.6 °F 43.2 °F 25% 29.87 in 10.0 mi West 12.7 mph 24.2 mph N/A   Clear
12:55 PM 82.8 °F 43.9 °F 25% 29.86 in 10.0 mi West 13.8 mph 21.9 mph N/A   Clear
1:15 PM 83.3 °F 44.1 °F 25% 29.85 in 10.0 mi West 11.5 mph 18.4 mph N/A   Clear
1:35 PM 84.2 °F 43.9 °F 24% 29.85 in 10.0 mi West 9.2 mph 16.1 mph N/A   Clear
1:55 PM 83.7 °F 43.0 °F 24% 29.85 in 10.0 mi WNW 12.7 mph 18.4 mph N/A   Clear
2:15 PM 84.0 °F 43.0 °F 24% 29.85 in 10.0 mi NW 10.4 mph 16.1 mph N/A   Clear
2:35 PM 83.5 °F 42.8 °F 24% 29.85 in 10.0 mi WNW 5.8 mph - N/A   Clear
2:55 PM 83.7 °F 43.2 °F 24% 29.85 in 10.0 mi NW 9.2 mph - N/A   Clear
3:15 PM 84.0 °F 43.0 °F 24% 29.85 in 10.0 mi WSW 9.2 mph - N/A   Clear
3:35 PM 84.0 °F 40.5 °F 21% 29.85 in 10.0 mi Calm Calm - N/A   Clear
3:55 PM 84.6 °F 32.5 °F 15% 29.85 in 10.0 mi West 9.2 mph - N/A   Clear
4:15 PM 83.7 °F 32.0 °F 16% 29.86 in 10.0 mi NW 8.1 mph - N/A   Clear
4:35 PM 83.1 °F 32.5 °F 16% 29.87 in 10.0 mi WNW 6.9 mph - N/A   Clear
4:55 PM 81.5 °F 34.0 °F 18% 29.87 in 10.0 mi WNW 3.5 mph - N/A   Clear
5:15 PM 79.5 °F 34.7 °F 20% 29.88 in 10.0 mi NW 3.5 mph - N/A   Clear
5:35 PM 78.3 °F 34.2 °F 20% 29.89 in 10.0 mi Calm Calm - N/A   Clear
5:55 PM 76.5 °F 35.6 °F 23% 29.90 in 10.0 mi West 3.5 mph - N/A   Clear
6:15 PM 76.6 °F 34.2 °F 21% 29.91 in 10.0 mi WNW 4.6 mph - N/A   Clear
6:35 PM 75.6 °F 34.0 °F 22% 29.91 in 10.0 mi WNW 3.5 mph - N/A   Clear
6:55 PM 75.2 °F 34.0 °F 22% 29.92 in 10.0 mi WNW 3.5 mph - N/A   Clear
7:15 PM 74.8 °F 33.6 °F 22% 29.93 in 10.0 mi WNW 3.5 mph - N/A   Clear
7:35 PM 73.9 °F 33.4 °F 23% 29.93 in 10.0 mi WNW 3.5 mph - N/A   Clear
7:55 PM 73.6 °F 33.8 °F 23% 29.94 in 10.0 mi West 4.6 mph - N/A   Clear
8:15 PM 73.0 °F 34.3 °F 24% 29.95 in 10.0 mi WNW 3.5 mph - N/A   Clear
8:35 PM 71.6 °F 34.7 °F 26% 29.95 in 10.0 mi West 4.6 mph - N/A   Clear
8:55 PM 71.8 °F 34.0 °F 25% 29.96 in 10.0 mi West 4.6 mph - N/A   Clear
9:15 PM 71.6 °F 33.8 °F 25% 29.96 in 10.0 mi West 4.6 mph - N/A   Clear
9:35 PM 72.3 °F 33.3 °F 24% 29.97 in 10.0 mi West 3.5 mph - N/A   Clear
9:55 PM 72.5 °F 33.1 °F 24% 29.98 in 10.0 mi NNW 5.8 mph - N/A   Clear
10:15 PM 58.6 °F 40.5 °F 51% 29.99 in 10.0 mi North 5.8 mph - N/A   Clear
10:35 PM 60.6 °F 39.2 °F 45% 30.00 in 10.0 mi NNW 5.8 mph - N/A   Clear
10:55 PM 60.1 °F 38.8 °F 45% 30.00 in 10.0 mi North 4.6 mph - N/A   Clear
11:15 PM 59.5 °F 38.7 °F 46% 30.01 in 10.0 mi NNE 3.5 mph - N/A   Clear
11:35 PM 60.1 °F 38.7 °F 45% 30.02 in 10.0 mi North 3.5 mph - N/A   Clear
11:55 PM 58.5 °F 39.2 °F 49% 30.02 in 10.0 mi NNW 3.5 mph - N/A   Clear